Time;durP1;ratioP1;P1;durP2;ratioP2;P2;SDS_P1;SDS_P2;PMS_P1;PMS_P2;Temp;Humidity;BMP_temperature;BMP_pressure;BME280_temperature;BME280_humidity;BME280_pressure;Samples;Min_cycle;Max_cycle;Signal;HPM_P1;HPM_P2
2021/11/10 00:01:49;;;;;;;38.53;14.30;;;;;;;12.65;72.69;102594.53;5019152;28;20387;-60
2021/11/10 00:04:14;;;;;;;44.45;14.48;;;;;;;12.62;72.87;102589.22;5006362;28;20120;-59
2021/11/10 00:06:39;;;;;;;42.42;14.52;;;;;;;12.67;72.58;102597.19;5022645;28;20052;-59
2021/11/10 00:09:05;;;;;;;45.70;14.35;;;;;;;12.63;72.33;102595.31;5010113;28;20115;-59
2021/11/10 00:11:31;;;;;;;49.83;14.63;;;;;;;12.66;72.28;102593.69;4987268;28;20480;-59
2021/11/10 00:13:57;;;;;;;38.72;13.55;;;;;;;12.62;72.39;102598.78;5016507;28;20049;-58
2021/11/10 00:16:23;;;;;;;46.10;13.73;;;;;;;12.58;72.44;102601.28;5015662;28;20060;-59
2021/11/10 00:18:51;;;;;;;45.00;13.48;;;;;;;12.61;71.99;102595.28;5019909;28;20503;-60
2021/11/10 00:21:19;;;;;;;36.72;12.75;;;;;;;12.64;72.09;102599.69;5000780;28;21847;-59
2021/11/10 00:23:44;;;;;;;39.90;12.60;;;;;;;12.56;71.95;102597.72;5023193;28;20180;-57
2021/11/10 00:26:10;;;;;;;31.27;11.63;;;;;;;12.65;71.11;102593.63;4999275;28;20501;-59
2021/11/10 00:28:35;;;;;;;33.55;11.32;;;;;;;12.60;71.30;102583.94;5019518;28;20114;-58
2021/11/10 00:31:00;;;;;;;29.73;11.30;;;;;;;12.62;70.76;102588.31;4990850;28;20505;-58
2021/11/10 00:33:26;;;;;;;29.50;10.50;;;;;;;12.49;71.37;102582.69;5024712;28;20162;-58
2021/11/10 00:35:53;;;;;;;34.38;10.85;;;;;;;12.59;70.96;102574.28;5017149;28;20064;-58
2021/11/10 00:38:18;;;;;;;33.00;10.63;;;;;;;12.60;71.02;102578.69;5019842;28;20140;-59
2021/11/10 00:40:43;;;;;;;31.27;10.00;;;;;;;12.62;71.07;102576.13;5021778;28;20512;-59
2021/11/10 00:43:09;;;;;;;31.30;10.30;;;;;;;12.62;71.19;102573.50;5015031;28;20045;-59
2021/11/10 00:45:34;;;;;;;34.67;10.68;;;;;;;12.64;70.49;102573.53;5018509;28;20500;-58
2021/11/10 00:47:59;;;;;;;33.65;10.85;;;;;;;12.58;70.89;102564.66;5021286;28;20416;-58
2021/11/10 00:50:25;;;;;;;31.05;10.27;;;;;;;12.60;71.06;102573.47;5025886;28;20056;-59
2021/11/10 00:52:51;;;;;;;31.90;11.32;;;;;;;12.58;70.74;102564.66;5017559;28;20562;-59
2021/11/10 00:55:16;;;;;;;31.20;11.10;;;;;;;12.59;70.63;102558.59;5018803;28;20061;-59
2021/11/10 00:57:41;;;;;;;28.85;11.73;;;;;;;12.57;70.71;102559.38;5020756;28;20041;-59
2021/11/10 01:00:08;;;;;;;28.85;11.10;;;;;;;12.55;71.02;102559.34;5015775;28;20053;-58
2021/11/10 01:02:34;;;;;;;32.80;11.25;;;;;;;12.56;70.81;102557.63;5025425;28;20216;-58
2021/11/10 01:04:59;;;;;;;28.10;10.93;;;;;;;12.57;70.78;102555.03;5013183;28;20171;-59
2021/11/10 01:07:25;;;;;;;28.13;10.73;;;;;;;12.62;70.91;102560.44;5018850;28;20125;-58
2021/11/10 01:09:57;;;;;;;33.53;11.15;;;;;;;12.60;71.03;102552.53;5019794;28;20705;-58
2021/11/10 01:12:23;;;;;;;28.65;11.55;;;;;;;12.59;71.27;102545.50;5019226;28;20037;-59
2021/11/10 01:14:49;;;;;;;28.08;11.23;;;;;;;12.55;71.60;102537.53;5016546;28;20115;-59
2021/11/10 01:17:15;;;;;;;32.75;10.95;;;;;;;12.58;71.21;102533.25;5014756;28;20041;-58
2021/11/10 01:19:40;;;;;;;31.50;11.57;;;;;;;12.53;71.97;102539.19;5026267;28;20049;-58
2021/11/10 01:22:06;;;;;;;34.13;11.73;;;;;;;12.53;72.06;102534.84;5017715;28;20076;-58
2021/11/10 01:24:31;;;;;;;31.58;12.20;;;;;;;12.54;71.92;102541.88;5013394;28;20381;-59
2021/11/10 01:26:57;;;;;;;36.33;11.88;;;;;;;12.55;71.83;102535.81;5016634;28;20059;-59
2021/11/10 01:29:22;;;;;;;36.85;12.02;;;;;;;12.60;71.77;102531.59;5018205;28;20044;-58
2021/11/10 01:31:48;;;;;;;34.38;12.23;;;;;;;12.65;71.35;102528.22;4994736;28;21750;-59
2021/11/10 01:34:13;;;;;;;34.67;12.48;;;;;;;12.56;71.95;102532.31;5006421;28;20591;-58
2021/11/10 01:36:38;;;;;;;39.47;12.80;;;;;;;12.55;72.17;102519.22;5020773;28;20029;-59
2021/11/10 01:39:05;;;;;;;36.42;12.13;;;;;;;12.52;72.38;102517.38;5010668;28;20055;-58
2021/11/10 01:41:38;;;;;;;39.13;12.90;;;;;;;12.58;72.37;102514.06;5021471;28;20036;-58
2021/11/10 01:44:03;;;;;;;38.83;12.60;;;;;;;12.59;72.42;102508.00;4995460;28;20456;-58
2021/11/10 01:46:29;;;;;;;35.50;12.68;;;;;;;12.59;72.16;102501.03;5022043;28;20040;-58
2021/11/10 01:48:54;;;;;;;38.50;12.65;;;;;;;12.62;72.07;102499.38;5018517;28;20468;-59
2021/11/10 01:51:24;;;;;;;36.70;12.98;;;;;;;12.63;71.66;102491.53;5020529;28;20053;-58
2021/11/10 01:53:52;;;;;;;29.15;12.35;;;;;;;12.62;71.48;102487.16;5018398;28;20075;-59
2021/11/10 01:56:18;;;;;;;35.58;12.88;;;;;;;12.63;71.34;102480.19;4998753;28;20471;-59
2021/11/10 01:58:45;;;;;;;38.40;12.52;;;;;;;12.64;71.11;102464.53;5017946;28;20037;-59
2021/11/10 02:01:10;;;;;;;39.55;12.68;;;;;;;12.63;70.94;102474.94;5010479;28;20339;-58
2021/11/10 02:03:35;;;;;;;37.25;12.77;;;;;;;12.58;71.47;102474.81;5018069;28;20060;-58
2021/11/10 02:06:01;;;;;;;39.25;13.35;;;;;;;12.55;71.43;102472.13;5021632;28;20044;-58
2021/11/10 02:08:26;;;;;;;38.90;12.80;;;;;;;12.55;71.52;102472.13;5019378;28;20216;-59
2021/11/10 02:10:52;;;;;;;40.00;12.85;;;;;;;12.56;71.33;102474.75;5013541;28;20048;-58
2021/11/10 02:13:17;;;;;;;36.70;12.57;;;;;;;12.56;71.30;102463.44;5000469;28;20149;-58
2021/11/10 02:15:43;;;;;;;41.58;12.85;;;;;;;12.56;71.57;102466.91;5016378;28;20217;-59
2021/11/10 02:18:08;;;;;;;40.78;12.65;;;;;;;12.57;71.98;102459.94;5018292;28;20140;-59
2021/11/10 02:20:37;;;;;;;41.85;13.63;;;;;;;12.59;71.54;102468.75;5002199;28;20048;-58
2021/11/10 02:23:03;;;;;;;39.20;13.35;;;;;;;12.57;71.77;102455.59;5008927;28;20049;-58
2021/11/10 02:25:29;;;;;;;35.45;12.73;;;;;;;12.58;72.04;102449.53;5021200;28;20048;-58
2021/11/10 02:27:58;;;;;;;36.78;12.48;;;;;;;12.54;72.57;102454.66;5000392;28;20044;-59
2021/11/10 02:30:24;;;;;;;33.63;11.57;;;;;;;12.54;72.66;102455.53;5017658;28;20049;-59
2021/11/10 02:32:55;;;;;;;35.40;12.18;;;;;;;12.51;72.77;102455.41;5017397;28;20071;-59
2021/11/10 02:35:23;;;;;;;35.88;12.73;;;;;;;12.43;72.93;102464.78;4996622;28;20211;-58
2021/11/10 02:37:53;;;;;;;36.78;12.88;;;;;;;12.37;73.30;102464.59;5020577;28;20118;-59
2021/11/10 02:40:19;;;;;;;40.13;13.30;;;;;;;12.28;73.27;102463.41;5026446;28;20135;-58
2021/11/10 02:42:45;;;;;;;40.22;12.85;;;;;;;12.34;72.66;102460.97;5008809;28;20044;-59
2021/11/10 02:45:10;;;;;;;35.53;12.82;;;;;;;12.42;72.44;102463.00;5006174;28;20041;-58
2021/11/10 02:47:36;;;;;;;38.70;13.05;;;;;;;12.43;71.94;102456.94;5018992;28;20124;-58
2021/11/10 02:50:03;;;;;;;38.08;13.15;;;;;;;12.47;71.81;102455.28;5018520;28;20052;-59
2021/11/10 02:52:28;;;;;;;44.58;14.10;;;;;;;12.43;71.77;102453.44;4984197;28;20040;-58
2021/11/10 02:54:54;;;;;;;41.90;13.40;;;;;;;12.45;71.78;102454.34;5018565;28;20151;-59
2021/11/10 02:57:21;;;;;;;37.95;13.13;;;;;;;12.51;71.42;102449.31;4996991;28;20149;-59
2021/11/10 02:59:46;;;;;;;41.47;13.68;;;;;;;12.49;71.43;102440.53;5021249;28;20064;-59
2021/11/10 03:02:12;;;;;;;37.80;13.48;;;;;;;12.45;72.04;102447.38;5022635;28;20206;-58
2021/11/10 03:04:45;;;;;;;44.13;13.80;;;;;;;12.45;71.95;102450.00;5022967;28;20482;-59
2021/11/10 03:07:15;;;;;;;44.45;14.27;;;;;;;12.43;71.97;102445.59;4996820;28;20342;-59
2021/11/10 03:09:41;;;;;;;42.72;14.90;;;;;;;12.36;71.31;102454.97;5020950;28;20497;-58
2021/11/10 03:12:08;;;;;;;47.55;14.88;;;;;;;12.41;70.90;102462.94;5020834;28;20626;-59
2021/11/10 03:14:35;;;;;;;45.80;14.90;;;;;;;12.44;70.61;102456.06;5021116;28;20419;-59
2021/11/10 03:17:03;;;;;;;46.60;14.93;;;;;;;12.45;70.83;102459.56;5013261;28;20224;-59
2021/11/10 03:19:28;;;;;;;46.55;14.40;;;;;;;12.52;70.45;102456.31;5020338;28;20113;-58
2021/11/10 03:21:54;;;;;;;42.35;14.10;;;;;;;12.52;70.23;102451.97;5014033;28;20045;-59
2021/11/10 03:24:20;;;;;;;41.20;14.10;;;;;;;12.50;70.55;102448.41;5024330;28;20128;-58
2021/11/10 03:26:45;;;;;;;45.38;15.07;;;;;;;12.48;71.03;102446.59;5026488;28;20041;-59
2021/11/10 03:29:11;;;;;;;45.28;14.25;;;;;;;12.46;70.68;102451.78;5014688;28;20437;-58
2021/11/10 03:31:38;;;;;;;46.40;14.10;;;;;;;12.47;70.34;102453.56;5018177;28;20076;-58
2021/11/10 03:34:05;;;;;;;40.72;14.13;;;;;;;12.42;70.58;102455.16;5001852;28;20049;-58
2021/11/10 03:36:31;;;;;;;44.38;13.90;;;;;;;12.40;71.00;102451.59;5021414;28;20055;-59
2021/11/10 03:38:56;;;;;;;39.33;13.85;;;;;;;12.41;70.87;102456.00;5016237;28;20036;-58
2021/11/10 03:41:22;;;;;;;38.78;13.73;;;;;;;12.39;70.87;102462.88;5019814;28;20084;-59
2021/11/10 03:43:51;;;;;;;42.78;13.45;;;;;;;12.39;70.87;102459.38;5028732;28;20037;-58
2021/11/10 03:46:18;;;;;;;37.45;12.93;;;;;;;12.37;71.31;102464.59;5003985;28;20048;-58
2021/11/10 03:48:43;;;;;;;39.47;13.73;;;;;;;12.39;70.97;102462.88;5022880;28;20052;-58
2021/11/10 03:51:09;;;;;;;39.22;13.93;;;;;;;12.37;70.58;102455.84;5013895;28;20048;-58
2021/11/10 03:53:34;;;;;;;39.88;13.07;;;;;;;12.27;71.35;102465.13;5023727;28;20420;-58
2021/11/10 03:56:00;;;;;;;40.10;13.25;;;;;;;12.29;71.57;102468.69;5019178;28;20762;-59
2021/11/10 03:58:25;;;;;;;36.50;12.50;;;;;;;12.34;71.18;102466.22;5019451;28;20063;-59
2021/11/10 04:00:50;;;;;;;36.70;12.27;;;;;;;12.34;70.37;102466.22;5004739;28;20072;-59
2021/11/10 04:03:16;;;;;;;33.20;12.52;;;;;;;12.31;70.22;102468.75;5015402;28;20466;-59
2021/11/10 04:05:42;;;;;;;35.70;12.55;;;;;;;12.35;70.53;102463.66;5001975;28;20045;-59
2021/11/10 04:08:09;;;;;;;32.28;12.00;;;;;;;12.33;69.84;102461.81;5023964;28;20079;-59
2021/11/10 04:10:35;;;;;;;31.83;12.52;;;;;;;12.28;70.50;102463.41;5023309;28;20044;-59
2021/11/10 04:13:00;;;;;;;35.53;12.60;;;;;;;12.26;70.82;102465.97;4998271;28;20370;-59
2021/11/10 04:15:25;;;;;;;30.08;12.02;;;;;;;12.22;70.54;102471.94;5002800;28;20031;-58
2021/11/10 04:17:51;;;;;;;32.05;12.18;;;;;;;12.24;70.97;102467.66;5018834;28;20156;-59
2021/11/10 04:20:16;;;;;;;35.60;12.20;;;;;;;12.22;70.35;102471.06;5019454;28;20045;-58
2021/11/10 04:22:42;;;;;;;34.97;12.73;;;;;;;12.20;70.74;102471.88;4994377;28;20073;-56
2021/11/10 04:25:08;;;;;;;33.20;12.00;;;;;;;12.24;70.49;102474.59;5019843;28;20147;-58
2021/11/10 04:27:33;;;;;;;33.38;12.45;;;;;;;12.14;70.63;102468.19;5023878;28;20033;-59
2021/11/10 04:29:59;;;;;;;32.20;12.65;;;;;;;12.17;71.08;102478.75;5018852;28;20052;-58
2021/11/10 04:32:24;;;;;;;33.92;12.73;;;;;;;12.18;70.48;102478.81;5022232;28;20040;-58
2021/11/10 04:34:50;;;;;;;33.25;12.60;;;;;;;12.14;70.03;102474.31;5018952;28;20041;-58
2021/11/10 04:37:16;;;;;;;40.00;12.93;;;;;;;12.16;70.37;102472.63;5010847;28;20622;-58
2021/11/10 04:39:42;;;;;;;35.10;12.38;;;;;;;12.14;70.83;102469.06;5023139;28;20048;-57
2021/11/10 04:42:09;;;;;;;32.15;12.38;;;;;;;12.11;70.96;102466.38;5023216;28;20049;-59
2021/11/10 04:44:38;;;;;;;33.65;11.82;;;;;;;12.12;71.04;102468.16;5020350;28;20060;-59
2021/11/10 04:47:04;;;;;;;33.03;12.70;;;;;;;12.10;70.81;102475.06;5010186;28;20148;-58
2021/11/10 04:49:30;;;;;;;33.67;12.80;;;;;;;12.01;71.13;102466.94;5022361;28;20079;-58
2021/11/10 04:52:00;;;;;;;34.47;12.18;;;;;;;12.05;70.85;102471.41;4994498;28;20033;-58
2021/11/10 04:54:30;;;;;;;32.17;12.68;;;;;;;12.05;71.15;102478.34;5015622;28;20556;-59
2021/11/10 04:56:57;;;;;;;32.00;12.07;;;;;;;11.99;71.54;102479.03;5015678;28;20041;-57
2021/11/10 04:59:22;;;;;;;27.60;12.45;;;;;;;11.94;71.66;102479.72;5021900;28;20338;-58
2021/11/10 05:04:25;;;;;;;36.30;12.55;;;;;;;12.01;71.15;102484.34;5024126;28;20076;-58
2021/11/10 05:06:50;;;;;;;26.88;11.73;;;;;;;12.05;71.21;102487.09;5015835;28;20041;-59
2021/11/10 05:09:16;;;;;;;27.00;11.27;;;;;;;12.10;70.37;102484.63;5017442;28;20063;-58
2021/11/10 05:11:41;;;;;;;30.83;10.82;;;;;;;12.14;69.64;102479.53;5019858;28;20044;-59
2021/11/10 05:14:06;;;;;;;28.00;10.68;;;;;;;12.13;70.21;102484.72;5011536;28;20051;-59
2021/11/10 05:16:32;;;;;;;28.67;11.50;;;;;;;12.16;69.59;102485.72;5021453;28;20110;-59
2021/11/10 05:18:57;;;;;;;26.67;10.80;;;;;;;12.15;70.19;102481.31;5012737;28;20051;-60
2021/11/10 05:21:22;;;;;;;26.85;10.82;;;;;;;12.16;70.34;102487.44;5023957;28;20132;-59
2021/11/10 05:23:48;;;;;;;26.90;10.73;;;;;;;12.14;69.76;102478.63;5017228;28;20052;-59
2021/11/10 05:26:13;;;;;;;28.23;10.82;;;;;;;12.11;70.32;102471.59;5014065;28;21013;-58
2021/11/10 05:28:38;;;;;;;28.52;10.43;;;;;;;12.13;70.50;102479.50;5018059;28;20521;-59
2021/11/10 05:31:04;;;;;;;24.52;10.35;;;;;;;12.13;70.30;102469.03;5011839;28;20090;-58
2021/11/10 05:33:29;;;;;;;30.83;10.90;;;;;;;12.11;70.73;102470.72;5023512;28;20060;-58
2021/11/10 05:35:55;;;;;;;33.42;11.05;;;;;;;12.11;70.71;102471.59;5017974;28;20051;-59
2021/11/10 05:38:20;;;;;;;30.80;10.48;;;;;;;12.09;71.31;102481.09;5001783;28;20132;-57
2021/11/10 05:40:46;;;;;;;26.30;11.20;;;;;;;12.10;71.21;102472.44;5018904;28;20048;-59
2021/11/10 05:43:12;;;;;;;27.70;11.20;;;;;;;12.05;71.26;102468.78;5009487;28;20041;-59
2021/11/10 05:45:37;;;;;;;26.60;10.88;;;;;;;12.00;71.56;102473.00;5019775;28;20049;-59
2021/11/10 05:48:03;;;;;;;30.67;11.32;;;;;;;12.00;72.13;102473.00;5000174;28;20515;-58
2021/11/10 05:50:28;;;;;;;27.33;11.23;;;;;;;12.04;71.69;102469.63;5025447;28;20055;-58
2021/11/10 05:52:54;;;;;;;33.17;11.43;;;;;;;11.99;71.74;102481.66;5014745;28;20825;-58
2021/11/10 05:55:22;;;;;;;29.38;11.30;;;;;;;12.02;71.41;102486.09;5019410;28;20120;-58
2021/11/10 05:57:49;;;;;;;29.02;10.73;;;;;;;11.99;70.90;102486.00;4997998;28;20043;-59
2021/11/10 06:00:14;;;;;;;27.30;11.45;;;;;;;11.98;70.83;102485.09;5021884;28;20433;-59
2021/11/10 06:02:41;;;;;;;24.92;10.43;;;;;;;12.00;70.58;102483.44;5018277;28;20939;-58
2021/11/10 06:05:07;;;;;;;26.73;11.32;;;;;;;11.97;70.79;102491.16;5009937;28;20102;-59
2021/11/10 06:07:35;;;;;;;29.85;11.15;;;;;;;11.95;71.23;102486.75;5024750;28;20058;-59
2021/11/10 06:10:00;;;;;;;29.63;11.48;;;;;;;11.88;71.14;102487.38;5003202;28;20102;-59
2021/11/10 06:12:25;;;;;;;30.10;10.75;;;;;;;11.91;70.72;102488.34;4997047;28;20097;-59
2021/11/10 06:14:51;;;;;;;26.98;11.43;;;;;;;11.87;71.12;102494.31;5013190;28;20504;-58
2021/11/10 06:17:16;;;;;;;28.58;11.77;;;;;;;11.87;70.51;102498.66;5014478;28;20354;-59
2021/11/10 06:19:42;;;;;;;24.63;11.75;;;;;;;11.84;70.98;102494.19;5020649;28;20424;-59
2021/11/10 06:22:07;;;;;;;30.27;11.55;;;;;;;11.86;70.13;102497.75;5016137;28;20341;-59
2021/11/10 06:24:32;;;;;;;32.03;12.55;;;;;;;11.86;70.35;102502.09;5022262;28;20574;-58
2021/11/10 06:26:58;;;;;;;32.83;12.00;;;;;;;11.79;70.74;102501.00;5011193;28;20652;-58
2021/11/10 06:29:23;;;;;;;27.70;11.90;;;;;;;11.86;70.41;102500.38;5022091;28;20493;-59
2021/11/10 06:31:50;;;;;;;32.72;12.20;;;;;;;11.84;70.03;102515.09;5020292;28;20425;-58
2021/11/10 06:34:16;;;;;;;27.50;12.02;;;;;;;11.82;69.88;102513.28;5003204;28;20838;-59
2021/11/10 06:36:41;;;;;;;32.63;12.70;;;;;;;11.83;69.05;102499.41;5028087;28;20318;-59
2021/11/10 06:39:06;;;;;;;32.72;12.93;;;;;;;11.79;69.38;102501.00;5017571;28;20124;-59
2021/11/10 06:41:32;;;;;;;29.23;12.18;;;;;;;11.75;69.20;102494.78;5023976;28;20045;-59
2021/11/10 06:43:57;;;;;;;31.58;12.52;;;;;;;11.71;68.98;102507.66;5022457;28;20408;-58
2021/11/10 06:46:22;;;;;;;31.55;13.32;;;;;;;11.68;69.57;102508.44;5022884;28;20125;-57
2021/11/10 06:48:50;;;;;;;28.35;12.75;;;;;;;11.69;70.44;102506.72;5022918;28;20032;-60
2021/11/10 06:51:15;;;;;;;30.00;12.90;;;;;;;11.70;70.14;102503.28;5013478;28;20047;-58
2021/11/10 06:53:42;;;;;;;30.63;13.27;;;;;;;11.70;70.31;102508.50;5028494;28;20029;-59
2021/11/10 06:56:08;;;;;;;26.92;12.93;;;;;;;11.66;70.81;102498.75;5023579;28;20304;-58
2021/11/10 06:58:33;;;;;;;36.00;13.45;;;;;;;11.65;70.08;102502.19;5004486;28;20037;-59
2021/11/10 07:00:59;;;;;;;35.55;14.18;;;;;;;11.64;70.44;102503.06;5013832;28;20048;-59
2021/11/10 07:03:24;;;;;;;38.20;13.30;;;;;;;11.56;70.26;102505.41;5023739;28;20044;-59
2021/11/10 07:05:50;;;;;;;30.92;13.02;;;;;;;11.61;70.00;102516.00;5025113;28;20553;-59
2021/11/10 07:08:16;;;;;;;39.50;13.93;;;;;;;11.61;69.96;102510.78;5008997;28;20729;-58
2021/11/10 07:10:41;;;;;;;34.10;13.02;;;;;;;11.65;69.57;102510.03;5019959;28;20072;-59
2021/11/10 07:13:06;;;;;;;29.92;13.02;;;;;;;11.68;69.78;102515.38;5000572;28;20547;-58
2021/11/10 07:15:32;;;;;;;33.65;14.10;;;;;;;11.64;69.46;102523.97;5023440;28;20045;-58
2021/11/10 07:17:57;;;;;;;36.83;13.75;;;;;;;11.65;69.93;102533.53;5014671;28;20048;-58
2021/11/10 07:20:23;;;;;;;34.47;13.60;;;;;;;11.64;69.88;102540.53;5025539;28;20582;-58
2021/11/10 07:22:49;;;;;;;30.40;13.43;;;;;;;11.65;70.18;102541.38;5025644;28;20465;-59
2021/11/10 07:25:15;;;;;;;33.95;13.95;;;;;;;11.65;70.77;102542.28;5013744;28;20243;-60
2021/11/10 07:27:41;;;;;;;31.20;13.40;;;;;;;11.66;69.35;102544.06;5023710;28;20049;-59
2021/11/10 07:30:09;;;;;;;30.08;12.88;;;;;;;11.64;69.26;102547.47;5015942;28;20072;-57
2021/11/10 07:32:35;;;;;;;37.60;13.40;;;;;;;11.65;69.58;102559.66;5022521;28;20049;-57
2021/11/10 07:35:05;;;;;;;29.60;12.82;;;;;;;11.70;70.53;102555.53;5017087;28;20068;-58
2021/11/10 07:37:31;;;;;;;29.73;13.35;;;;;;;11.72;69.75;102549.50;5020841;28;20067;-58
2021/11/10 07:39:57;;;;;;;32.92;12.80;;;;;;;11.76;70.06;102553.16;5006140;28;20520;-58
2021/11/10 07:42:23;;;;;;;29.35;12.10;;;;;;;11.87;68.82;102541.34;5017225;28;20053;-57
2021/11/10 07:44:53;;;;;;;34.17;13.43;;;;;;;11.89;68.53;102530.97;5017111;28;20041;-57
2021/11/10 07:47:21;;;;;;;34.05;12.85;;;;;;;11.82;68.51;102519.41;5024000;28;20045;-59
2021/11/10 07:49:47;;;;;;;34.72;13.35;;;;;;;11.89;67.68;102516.19;5021105;28;20377;-57
2021/11/10 07:52:13;;;;;;;31.98;12.73;;;;;;;11.98;68.24;102510.34;5005853;28;20095;-58
2021/11/10 07:54:39;;;;;;;30.35;12.90;;;;;;;11.98;68.33;102503.41;5019831;28;20238;-58
2021/11/10 07:57:05;;;;;;;28.67;12.63;;;;;;;12.07;68.36;102500.22;4994675;28;20056;-58
2021/11/10 07:59:30;;;;;;;29.08;13.02;;;;;;;12.16;67.89;102497.88;5021749;28;20496;-57
2021/11/10 08:01:56;;;;;;;29.67;13.00;;;;;;;12.24;67.57;102503.38;5023213;28;20032;-59
2021/11/10 08:04:21;;;;;;;30.08;12.63;;;;;;;12.27;67.37;102506.06;5003295;28;20048;-57
2021/11/10 08:06:46;;;;;;;31.55;13.27;;;;;;;12.28;67.21;102513.97;5014387;28;21353;-58
2021/11/10 08:09:12;;;;;;;31.27;12.98;;;;;;;12.23;67.36;102533.88;5018417;28;22388;-58
2021/11/10 08:11:38;;;;;;;30.83;13.55;;;;;;;12.23;68.31;102560.00;5015864;28;20053;-58
2021/11/10 08:14:03;;;;;;;30.77;13.40;;;;;;;12.18;67.29;102546.78;5015897;28;20037;-58
2021/11/10 08:16:29;;;;;;;35.72;13.80;;;;;;;12.19;67.35;102543.34;5017391;28;20467;-59
2021/11/10 08:18:54;;;;;;;30.75;13.35;;;;;;;12.18;67.79;102530.22;5017185;28;20076;-58
2021/11/10 08:21:20;;;;;;;29.83;13.25;;;;;;;12.29;67.69;102520.09;5024524;28;20617;-59
2021/11/10 08:23:47;;;;;;;36.30;13.88;;;;;;;12.28;66.72;102511.38;5001119;28;20614;-59
2021/11/10 08:26:12;;;;;;;31.33;13.63;;;;;;;12.30;66.76;102524.50;5004271;28;20504;-58
2021/11/10 08:28:38;;;;;;;37.72;14.30;;;;;;;12.28;67.63;102541.84;5016063;28;20406;-59
2021/11/10 08:31:03;;;;;;;36.25;14.25;;;;;;;12.37;67.26;102524.75;5011117;28;20049;-60
2021/11/10 08:33:29;;;;;;;34.83;13.30;;;;;;;12.35;66.40;102518.56;5018387;28;20819;-58
2021/11/10 08:35:55;;;;;;;36.72;13.40;;;;;;;12.33;66.60;102522.84;5014906;28;20052;-58
2021/11/10 08:38:21;;;;;;;32.22;13.40;;;;;;;12.38;66.18;102515.19;5014365;28;20160;-58
2021/11/10 08:40:47;;;;;;;37.90;13.98;;;;;;;12.44;66.45;102515.38;5019155;28;20053;-58
2021/11/10 08:43:13;;;;;;;31.92;14.45;;;;;;;12.54;66.00;102512.19;5010948;28;23920;-58
2021/11/10 08:45:40;;;;;;;34.78;13.30;;;;;;;12.66;65.61;102519.53;5016055;28;20544;-58
2021/11/10 08:48:06;;;;;;;31.00;13.20;;;;;;;12.74;65.66;102515.44;5017881;28;20690;-58
2021/11/10 08:50:35;;;;;;;31.90;13.05;;;;;;;12.74;64.80;102524.19;5014901;28;20041;-59
2021/11/10 08:53:02;;;;;;;31.63;13.40;;;;;;;12.82;65.61;102521.78;5010784;28;20124;-58
2021/11/10 08:55:27;;;;;;;36.20;13.85;;;;;;;12.74;64.06;102516.31;5012550;28;20525;-59
2021/11/10 08:57:53;;;;;;;30.40;12.57;;;;;;;12.83;64.73;102528.78;5018627;28;20487;-58
2021/11/10 09:00:22;;;;;;;31.83;12.80;;;;;;;12.75;63.70;102539.00;5003720;28;20522;-57
2021/11/10 09:02:48;;;;;;;33.60;12.57;;;;;;;12.70;64.21;102537.09;5017109;28;20047;-58
2021/11/10 09:05:15;;;;;;;28.67;12.82;;;;;;;12.60;65.12;102531.59;5013863;28;20053;-58
2021/11/10 09:07:40;;;;;;;27.80;13.07;;;;;;;12.73;63.77;102531.97;4996178;28;20055;-57
2021/11/10 09:10:08;;;;;;;32.17;12.32;;;;;;;12.74;63.21;102533.75;5021833;28;20493;-56
2021/11/10 09:12:37;;;;;;;30.13;12.98;;;;;;;12.78;62.48;102535.63;5003121;28;20049;-59
2021/11/10 09:15:03;;;;;;;32.72;12.95;;;;;;;12.84;62.41;102534.06;5012784;28;20041;-58
2021/11/10 09:17:34;;;;;;;29.65;11.82;;;;;;;12.83;62.17;102537.53;5019618;28;20126;-58
2021/11/10 09:20:00;;;;;;;31.58;11.80;;;;;;;12.94;61.33;102541.34;5018251;28;20043;-59
2021/11/10 09:22:25;;;;;;;31.83;12.40;;;;;;;12.99;60.89;102537.13;5019609;28;20068;-58
2021/11/10 09:24:51;;;;;;;28.92;12.15;;;;;;;12.92;62.16;102540.44;5015456;28;20441;-58
2021/11/10 09:27:17;;;;;;;29.73;12.20;;;;;;;13.06;61.73;102537.31;5011635;28;20512;-56
2021/11/10 09:29:43;;;;;;;27.10;11.13;;;;;;;13.15;61.88;102537.66;5019128;28;20086;-58
2021/11/10 09:32:09;;;;;;;31.35;11.88;;;;;;;13.17;60.67;102531.63;5019482;28;20416;-57
2021/11/10 09:34:35;;;;;;;31.33;12.15;;;;;;;13.20;61.97;102526.47;5003790;28;20362;-57
2021/11/10 09:37:00;;;;;;;22.35;11.45;;;;;;;13.33;62.02;102527.69;5003931;28;20037;-55
2021/11/10 09:39:26;;;;;;;26.42;11.23;;;;;;;13.39;60.95;102525.25;5002452;28;20098;-58
2021/11/10 09:41:53;;;;;;;27.38;12.00;;;;;;;13.51;60.38;102527.31;5023290;28;20408;-59
2021/11/10 09:44:19;;;;;;;26.70;12.00;;;;;;;13.55;60.88;102534.41;5016187;28;20044;-58
2021/11/10 09:46:45;;;;;;;28.23;11.88;;;;;;;13.64;60.64;102530.31;5004276;28;20037;-58
2021/11/10 09:49:12;;;;;;;30.88;12.57;;;;;;;13.74;60.22;102526.19;5003839;28;20183;-58
2021/11/10 09:51:39;;;;;;;27.52;11.57;;;;;;;13.81;59.34;102529.03;5012980;28;20477;-57
2021/11/10 09:54:05;;;;;;;26.92;11.05;;;;;;;13.80;58.99;102529.88;5010936;28;20053;-59
2021/11/10 09:56:31;;;;;;;26.40;10.77;;;;;;;13.96;58.24;102531.19;4997763;28;20218;-58
2021/11/10 09:58:57;;;;;;;27.88;11.38;;;;;;;14.02;59.44;102531.34;5012317;28;20743;-56
2021/11/10 10:01:22;;;;;;;22.55;11.32;;;;;;;14.15;59.13;102529.88;4991807;28;20386;-57
2021/11/10 10:03:50;;;;;;;24.10;11.02;;;;;;;14.39;59.07;102521.78;5019080;28;21033;-60
2021/11/10 10:06:16;;;;;;;27.23;11.43;;;;;;;14.42;57.23;102519.22;5013471;28;20460;-57
2021/11/10 10:08:49;;;;;;;25.33;12.15;;;;;;;14.42;58.05;102521.84;5018590;28;20029;-60
2021/11/10 10:11:15;;;;;;;27.23;11.13;;;;;;;14.45;56.57;102525.44;5007790;28;20093;-58
2021/11/10 10:13:40;;;;;;;26.50;11.25;;;;;;;14.48;57.78;102528.13;5018349;28;20044;-58
2021/11/10 10:16:07;;;;;;;22.42;11.52;;;;;;;14.50;57.21;102531.69;5021218;28;20348;-56
2021/11/10 10:18:32;;;;;;;25.70;11.27;;;;;;;14.38;57.67;102533.13;5016952;28;20046;-59
2021/11/10 10:21:05;;;;;;;25.13;11.57;;;;;;;14.36;57.54;102532.16;5011377;28;20478;-59
2021/11/10 10:23:34;;;;;;;30.15;11.38;;;;;;;14.41;56.54;102530.56;5018414;28;20504;-59
2021/11/10 10:26:21;;;;;;;28.38;11.45;;;;;;;14.53;57.18;102541.34;5015924;28;20110;-58
2021/11/10 10:29:07;;;;;;;28.73;11.50;;;;;;;14.65;56.18;102541.63;5015903;28;20562;-59
2021/11/10 10:31:33;;;;;;;20.85;10.98;;;;;;;14.71;56.68;102546.13;5017806;28;20060;-58
2021/11/10 10:34:04;;;;;;;26.02;11.00;;;;;;;14.83;56.39;102542.06;4998538;28;20418;-58
2021/11/10 10:36:35;;;;;;;23.98;11.02;;;;;;;14.95;57.27;102544.94;4995905;28;20593;-58
2021/11/10 10:39:11;;;;;;;22.00;10.70;;;;;;;14.97;57.90;102545.00;5014889;28;20087;-60
2021/11/10 10:41:43;;;;;;;20.20;10.35;;;;;;;15.02;56.74;102531.09;4996442;28;20041;-60
2021/11/10 10:44:12;;;;;;;26.15;10.07;;;;;;;15.15;56.62;102534.00;5020374;28;20245;-58
2021/11/10 10:46:42;;;;;;;22.23;10.70;;;;;;;15.14;55.91;102542.72;5019545;28;20052;-59
2021/11/10 10:49:17;;;;;;;17.70;10.02;;;;;;;15.09;56.73;102536.50;4991680;28;20037;-59
2021/11/10 10:51:52;;;;;;;25.42;10.05;;;;;;;14.98;58.94;102536.28;5008952;28;20060;-58
2021/11/10 10:54:19;;;;;;;24.08;9.90;;;;;;;15.09;58.94;102536.50;5021568;28;20064;-59
2021/11/10 10:56:54;;;;;;;22.65;11.13;;;;;;;14.96;58.62;102537.97;5017822;28;20391;-58
2021/11/10 10:59:22;;;;;;;20.70;10.75;;;;;;;15.13;56.90;102533.94;5013226;28;20565;-60
2021/11/10 11:01:53;;;;;;;25.58;11.40;;;;;;;15.21;57.04;102526.25;5014650;28;20051;-60
2021/11/10 11:04:28;;;;;;;23.65;11.32;;;;;;;15.28;56.10;102525.50;4997502;28;20496;-57
2021/11/10 11:07:04;;;;;;;33.10;12.88;;;;;;;15.30;57.78;102526.44;5005089;28;20350;-59
2021/11/10 11:09:33;;;;;;;35.90;12.45;;;;;;;15.33;58.75;102530.00;5012317;28;20044;-59